sensor_id;sensor_type;location;lat;lon;timestamp;P1;durP1;ratioP1;P2;durP2;ratioP2
11344;SDS011;5727;42.600;23.028;2022-07-03T00:00:35;5.20;;;4.70;;
11344;SDS011;5727;42.600;23.028;2022-07-03T00:03:02;5.93;;;4.40;;
11344;SDS011;5727;42.600;23.028;2022-07-03T00:05:29;6.67;;;4.77;;
11344;SDS011;5727;42.600;23.028;2022-07-03T00:07:56;5.03;;;4.53;;
11344;SDS011;5727;42.600;23.028;2022-07-03T00:10:24;5.10;;;4.60;;
11344;SDS011;5727;42.600;23.028;2022-07-03T00:12:51;5.10;;;4.63;;
11344;SDS011;5727;42.600;23.028;2022-07-03T00:15:18;5.27;;;4.70;;
11344;SDS011;5727;42.600;23.028;2022-07-03T00:17:45;5.53;;;4.60;;
11344;SDS011;5727;42.600;23.028;2022-07-03T00:20:12;7.30;;;4.93;;
11344;SDS011;5727;42.600;23.028;2022-07-03T00:22:41;6.50;;;5.17;;
11344;SDS011;5727;42.600;23.028;2022-07-03T00:25:10;6.43;;;4.87;;
11344;SDS011;5727;42.600;23.028;2022-07-03T00:27:40;5.37;;;4.73;;
11344;SDS011;5727;42.600;23.028;2022-07-03T00:30:10;7.00;;;4.87;;
11344;SDS011;5727;42.600;23.028;2022-07-03T00:32:38;4.87;;;4.37;;
11344;SDS011;5727;42.600;23.028;2022-07-03T00:35:06;5.57;;;5.07;;
11344;SDS011;5727;42.600;23.028;2022-07-03T00:37:33;5.50;;;5.00;;
11344;SDS011;5727;42.600;23.028;2022-07-03T00:40:00;6.27;;;5.67;;
11344;SDS011;5727;42.600;23.028;2022-07-03T00:42:28;6.23;;;5.20;;
11344;SDS011;5727;42.600;23.028;2022-07-03T00:44:58;6.37;;;5.33;;
11344;SDS011;5727;42.600;23.028;2022-07-03T00:47:26;7.47;;;5.60;;
11344;SDS011;5727;42.600;23.028;2022-07-03T00:49:54;6.93;;;5.50;;
11344;SDS011;5727;42.600;23.028;2022-07-03T00:52:22;7.10;;;5.53;;
11344;SDS011;5727;42.600;23.028;2022-07-03T00:54:50;6.40;;;5.80;;
11344;SDS011;5727;42.600;23.028;2022-07-03T00:57:20;9.30;;;6.47;;
11344;SDS011;5727;42.600;23.028;2022-07-03T00:59:48;6.30;;;5.30;;
11344;SDS011;5727;42.600;23.028;2022-07-03T01:02:19;6.77;;;6.00;;
11344;SDS011;5727;42.600;23.028;2022-07-03T01:04:56;7.60;;;5.87;;
11344;SDS011;5727;42.600;23.028;2022-07-03T01:07:33;6.03;;;5.43;;
11344;SDS011;5727;42.600;23.028;2022-07-03T01:10:07;8.67;;;5.63;;
11344;SDS011;5727;42.600;23.028;2022-07-03T01:12:43;5.97;;;5.37;;
11344;SDS011;5727;42.600;23.028;2022-07-03T01:15:22;6.93;;;6.23;;
11344;SDS011;5727;42.600;23.028;2022-07-03T01:18:03;5.77;;;5.27;;
11344;SDS011;5727;42.600;23.028;2022-07-03T01:20:39;8.03;;;5.50;;
11344;SDS011;5727;42.600;23.028;2022-07-03T01:23:13;6.13;;;5.53;;
11344;SDS011;5727;42.600;23.028;2022-07-03T01:25:52;6.83;;;6.13;;
11344;SDS011;5727;42.600;23.028;2022-07-03T01:28:21;6.70;;;6.03;;
11344;SDS011;5727;42.600;23.028;2022-07-03T01:30:49;6.60;;;5.90;;
11344;SDS011;5727;42.600;23.028;2022-07-03T01:33:18;7.03;;;6.30;;
11344;SDS011;5727;42.600;23.028;2022-07-03T01:35:54;7.83;;;6.73;;
11344;SDS011;5727;42.600;23.028;2022-07-03T01:38:30;11.20;;;6.10;;
11344;SDS011;5727;42.600;23.028;2022-07-03T01:41:00;8.70;;;5.87;;
11344;SDS011;5727;42.600;23.028;2022-07-03T01:43:29;7.50;;;6.17;;
11344;SDS011;5727;42.600;23.028;2022-07-03T01:45:57;6.60;;;5.93;;
11344;SDS011;5727;42.600;23.028;2022-07-03T01:48:26;6.77;;;6.17;;
11344;SDS011;5727;42.600;23.028;2022-07-03T01:50:54;8.27;;;7.00;;
11344;SDS011;5727;42.600;23.028;2022-07-03T01:53:23;9.93;;;6.73;;
11344;SDS011;5727;42.600;23.028;2022-07-03T01:55:52;8.33;;;6.80;;
11344;SDS011;5727;42.600;23.028;2022-07-03T01:58:22;9.23;;;7.17;;
11344;SDS011;5727;42.600;23.028;2022-07-03T02:00:50;10.60;;;7.47;;
11344;SDS011;5727;42.600;23.028;2022-07-03T02:03:24;8.47;;;6.90;;
11344;SDS011;5727;42.600;23.028;2022-07-03T02:05:54;9.77;;;7.43;;
11344;SDS011;5727;42.600;23.028;2022-07-03T02:08:34;11.67;;;7.23;;
11344;SDS011;5727;42.600;23.028;2022-07-03T02:11:09;10.90;;;6.63;;
11344;SDS011;5727;42.600;23.028;2022-07-03T02:13:40;8.33;;;7.10;;
11344;SDS011;5727;42.600;23.028;2022-07-03T02:16:18;8.77;;;6.83;;
11344;SDS011;5727;42.600;23.028;2022-07-03T02:18:47;8.30;;;7.30;;
11344;SDS011;5727;42.600;23.028;2022-07-03T02:21:21;8.07;;;6.90;;
11344;SDS011;5727;42.600;23.028;2022-07-03T02:24:02;7.10;;;6.40;;
11344;SDS011;5727;42.600;23.028;2022-07-03T02:26:37;10.27;;;6.47;;
11344;SDS011;5727;42.600;23.028;2022-07-03T02:29:07;7.97;;;6.87;;
11344;SDS011;5727;42.600;23.028;2022-07-03T02:31:40;7.33;;;6.63;;
11344;SDS011;5727;42.600;23.028;2022-07-03T02:34:11;8.23;;;6.97;;
11344;SDS011;5727;42.600;23.028;2022-07-03T02:36:43;9.13;;;7.27;;
11344;SDS011;5727;42.600;23.028;2022-07-03T02:39:14;9.80;;;7.20;;
11344;SDS011;5727;42.600;23.028;2022-07-03T02:41:47;7.33;;;6.50;;
11344;SDS011;5727;42.600;23.028;2022-07-03T02:44:23;9.50;;;7.60;;
11344;SDS011;5727;42.600;23.028;2022-07-03T02:47:00;7.87;;;6.97;;
11344;SDS011;5727;42.600;23.028;2022-07-03T02:49:42;7.90;;;7.10;;
11344;SDS011;5727;42.600;23.028;2022-07-03T02:52:17;8.77;;;7.67;;
11344;SDS011;5727;42.600;23.028;2022-07-03T02:54:51;8.47;;;7.40;;
11344;SDS011;5727;42.600;23.028;2022-07-03T02:57:19;8.77;;;7.90;;
11344;SDS011;5727;42.600;23.028;2022-07-03T02:59:53;9.20;;;8.27;;
11344;SDS011;5727;42.600;23.028;2022-07-03T03:05:21;10.90;;;8.90;;
11344;SDS011;5727;42.600;23.028;2022-07-03T03:10:44;10.67;;;8.13;;
11344;SDS011;5727;42.600;23.028;2022-07-03T03:13:13;10.23;;;8.00;;
11344;SDS011;5727;42.600;23.028;2022-07-03T03:15:47;11.43;;;8.13;;
11344;SDS011;5727;42.600;23.028;2022-07-03T03:18:22;8.93;;;7.63;;
11344;SDS011;5727;42.600;23.028;2022-07-03T03:20:53;10.40;;;7.87;;
11344;SDS011;5727;42.600;23.028;2022-07-03T03:23:29;9.90;;;8.90;;
11344;SDS011;5727;42.600;23.028;2022-07-03T03:26:01;11.40;;;8.40;;
11344;SDS011;5727;42.600;23.028;2022-07-03T03:28:28;9.13;;;8.27;;
11344;SDS011;5727;42.600;23.028;2022-07-03T03:30:56;9.77;;;8.73;;
11344;SDS011;5727;42.600;23.028;2022-07-03T03:33:23;11.23;;;8.77;;
11344;SDS011;5727;42.600;23.028;2022-07-03T03:35:50;10.03;;;8.93;;
11344;SDS011;5727;42.600;23.028;2022-07-03T03:38:17;14.43;;;10.40;;
11344;SDS011;5727;42.600;23.028;2022-07-03T03:40:44;11.50;;;10.30;;
11344;SDS011;5727;42.600;23.028;2022-07-03T03:43:12;12.00;;;9.93;;
11344;SDS011;5727;42.600;23.028;2022-07-03T03:45:38;14.27;;;9.50;;
11344;SDS011;5727;42.600;23.028;2022-07-03T03:48:07;12.30;;;9.47;;
11344;SDS011;5727;42.600;23.028;2022-07-03T03:50:34;12.87;;;10.33;;
11344;SDS011;5727;42.600;23.028;2022-07-03T03:53:00;13.27;;;10.20;;
11344;SDS011;5727;42.600;23.028;2022-07-03T03:55:27;14.77;;;10.30;;
11344;SDS011;5727;42.600;23.028;2022-07-03T03:57:54;13.10;;;10.20;;
11344;SDS011;5727;42.600;23.028;2022-07-03T04:00:21;17.57;;;11.30;;
11344;SDS011;5727;42.600;23.028;2022-07-03T04:02:48;19.33;;;11.93;;
11344;SDS011;5727;42.600;23.028;2022-07-03T04:05:16;15.33;;;11.27;;
11344;SDS011;5727;42.600;23.028;2022-07-03T04:07:43;18.53;;;12.53;;
11344;SDS011;5727;42.600;23.028;2022-07-03T04:10:09;22.03;;;12.33;;
11344;SDS011;5727;42.600;23.028;2022-07-03T04:12:36;23.33;;;13.63;;
11344;SDS011;5727;42.600;23.028;2022-07-03T04:15:03;22.27;;;13.47;;
11344;SDS011;5727;42.600;23.028;2022-07-03T04:17:30;20.13;;;13.33;;
11344;SDS011;5727;42.600;23.028;2022-07-03T04:19:57;21.37;;;13.50;;
11344;SDS011;5727;42.600;23.028;2022-07-03T04:22:25;21.83;;;13.53;;
11344;SDS011;5727;42.600;23.028;2022-07-03T04:24:52;20.07;;;12.63;;
11344;SDS011;5727;42.600;23.028;2022-07-03T04:27:19;22.90;;;13.33;;
11344;SDS011;5727;42.600;23.028;2022-07-03T04:29:46;16.83;;;12.37;;
11344;SDS011;5727;42.600;23.028;2022-07-03T04:32:12;25.70;;;12.73;;
11344;SDS011;5727;42.600;23.028;2022-07-03T04:34:39;21.23;;;12.10;;
11344;SDS011;5727;42.600;23.028;2022-07-03T04:37:06;18.03;;;12.60;;
11344;SDS011;5727;42.600;23.028;2022-07-03T04:39:34;18.47;;;12.80;;
11344;SDS011;5727;42.600;23.028;2022-07-03T04:42:01;17.67;;;14.00;;
11344;SDS011;5727;42.600;23.028;2022-07-03T04:44:28;19.13;;;13.10;;
11344;SDS011;5727;42.600;23.028;2022-07-03T04:46:54;16.07;;;12.13;;
11344;SDS011;5727;42.600;23.028;2022-07-03T04:49:21;18.33;;;12.77;;
11344;SDS011;5727;42.600;23.028;2022-07-03T04:51:48;18.50;;;12.67;;
11344;SDS011;5727;42.600;23.028;2022-07-03T04:54:15;16.13;;;12.90;;
11344;SDS011;5727;42.600;23.028;2022-07-03T04:56:43;20.10;;;12.50;;
11344;SDS011;5727;42.600;23.028;2022-07-03T04:59:10;18.30;;;12.40;;
11344;SDS011;5727;42.600;23.028;2022-07-03T05:01:36;20.50;;;12.87;;
11344;SDS011;5727;42.600;23.028;2022-07-03T05:04:03;18.73;;;12.37;;
11344;SDS011;5727;42.600;23.028;2022-07-03T05:06:30;19.93;;;12.87;;
11344;SDS011;5727;42.600;23.028;2022-07-03T05:08:57;14.63;;;11.07;;
11344;SDS011;5727;42.600;23.028;2022-07-03T05:11:24;12.70;;;11.43;;
11344;SDS011;5727;42.600;23.028;2022-07-03T05:13:52;14.10;;;11.17;;
11344;SDS011;5727;42.600;23.028;2022-07-03T05:16:19;12.40;;;11.10;;
11344;SDS011;5727;42.600;23.028;2022-07-03T05:18:45;12.20;;;10.33;;
11344;SDS011;5727;42.600;23.028;2022-07-03T05:21:12;12.30;;;11.00;;
11344;SDS011;5727;42.600;23.028;2022-07-03T05:23:39;11.97;;;10.70;;
11344;SDS011;5727;42.600;23.028;2022-07-03T05:26:06;11.33;;;10.23;;
11344;SDS011;5727;42.600;23.028;2022-07-03T05:28:32;12.60;;;11.30;;
11344;SDS011;5727;42.600;23.028;2022-07-03T05:31:01;12.70;;;11.47;;
11344;SDS011;5727;42.600;23.028;2022-07-03T05:33:27;13.07;;;11.53;;
11344;SDS011;5727;42.600;23.028;2022-07-03T05:35:54;12.93;;;10.67;;
11344;SDS011;5727;42.600;23.028;2022-07-03T05:38:21;12.47;;;11.03;;
11344;SDS011;5727;42.600;23.028;2022-07-03T05:41:02;13.40;;;11.47;;
11344;SDS011;5727;42.600;23.028;2022-07-03T05:43:29;15.47;;;11.40;;
11344;SDS011;5727;42.600;23.028;2022-07-03T05:45:56;14.27;;;11.97;;
11344;SDS011;5727;42.600;23.028;2022-07-03T05:48:24;13.33;;;11.33;;
11344;SDS011;5727;42.600;23.028;2022-07-03T05:50:51;14.23;;;12.73;;
11344;SDS011;5727;42.600;23.028;2022-07-03T05:53:17;14.40;;;12.87;;
11344;SDS011;5727;42.600;23.028;2022-07-03T05:55:44;15.43;;;12.70;;
11344;SDS011;5727;42.600;23.028;2022-07-03T05:58:11;14.50;;;12.60;;
11344;SDS011;5727;42.600;23.028;2022-07-03T06:00:38;14.40;;;12.87;;
11344;SDS011;5727;42.600;23.028;2022-07-03T06:03:05;14.80;;;13.23;;
11344;SDS011;5727;42.600;23.028;2022-07-03T06:05:33;15.93;;;13.77;;
11344;SDS011;5727;42.600;23.028;2022-07-03T06:08:00;16.00;;;14.10;;
11344;SDS011;5727;42.600;23.028;2022-07-03T06:10:27;16.17;;;14.27;;
11344;SDS011;5727;42.600;23.028;2022-07-03T06:12:55;15.93;;;13.83;;
11344;SDS011;5727;42.600;23.028;2022-07-03T06:15:21;13.93;;;12.63;;
11344;SDS011;5727;42.600;23.028;2022-07-03T06:17:48;14.60;;;12.87;;
11344;SDS011;5727;42.600;23.028;2022-07-03T06:20:15;15.13;;;12.60;;
11344;SDS011;5727;42.600;23.028;2022-07-03T06:22:43;13.07;;;11.77;;
11344;SDS011;5727;42.600;23.028;2022-07-03T06:25:10;17.50;;;12.80;;
11344;SDS011;5727;42.600;23.028;2022-07-03T06:27:37;13.33;;;11.97;;
11344;SDS011;5727;42.600;23.028;2022-07-03T06:30:05;14.40;;;12.00;;
11344;SDS011;5727;42.600;23.028;2022-07-03T06:32:32;13.47;;;12.03;;
11344;SDS011;5727;42.600;23.028;2022-07-03T06:34:59;15.50;;;12.27;;
11344;SDS011;5727;42.600;23.028;2022-07-03T06:37:26;15.07;;;13.20;;
11344;SDS011;5727;42.600;23.028;2022-07-03T06:39:54;14.83;;;12.50;;
11344;SDS011;5727;42.600;23.028;2022-07-03T06:42:21;15.93;;;12.27;;
11344;SDS011;5727;42.600;23.028;2022-07-03T06:44:47;13.83;;;11.87;;
11344;SDS011;5727;42.600;23.028;2022-07-03T06:47:14;15.40;;;12.00;;
11344;SDS011;5727;42.600;23.028;2022-07-03T06:49:41;12.03;;;10.70;;
11344;SDS011;5727;42.600;23.028;2022-07-03T06:52:08;12.67;;;11.47;;
11344;SDS011;5727;42.600;23.028;2022-07-03T06:54:36;11.80;;;10.67;;
11344;SDS011;5727;42.600;23.028;2022-07-03T06:57:06;14.40;;;11.20;;
11344;SDS011;5727;42.600;23.028;2022-07-03T06:59:32;11.53;;;10.43;;
11344;SDS011;5727;42.600;23.028;2022-07-03T07:01:59;12.43;;;11.20;;
11344;SDS011;5727;42.600;23.028;2022-07-03T07:04:26;11.63;;;10.20;;
11344;SDS011;5727;42.600;23.028;2022-07-03T07:06:53;15.93;;;11.03;;
11344;SDS011;5727;42.600;23.028;2022-07-03T07:09:20;13.50;;;11.23;;
11344;SDS011;5727;42.600;23.028;2022-07-03T07:11:47;13.87;;;10.90;;
11344;SDS011;5727;42.600;23.028;2022-07-03T07:14:15;12.73;;;10.83;;
11344;SDS011;5727;42.600;23.028;2022-07-03T07:16:42;12.07;;;10.67;;
11344;SDS011;5727;42.600;23.028;2022-07-03T07:19:08;13.93;;;11.97;;
11344;SDS011;5727;42.600;23.028;2022-07-03T07:21:35;11.50;;;10.20;;
11344;SDS011;5727;42.600;23.028;2022-07-03T07:24:02;11.60;;;10.33;;
11344;SDS011;5727;42.600;23.028;2022-07-03T07:26:30;12.73;;;10.67;;
11344;SDS011;5727;42.600;23.028;2022-07-03T07:28:56;14.67;;;10.33;;
11344;SDS011;5727;42.600;23.028;2022-07-03T07:31:25;13.17;;;10.43;;
11344;SDS011;5727;42.600;23.028;2022-07-03T07:33:52;13.33;;;11.00;;
11344;SDS011;5727;42.600;23.028;2022-07-03T07:36:18;11.70;;;10.23;;
11344;SDS011;5727;42.600;23.028;2022-07-03T07:38:45;14.43;;;11.57;;
11344;SDS011;5727;42.600;23.028;2022-07-03T07:41:12;16.03;;;12.43;;
11344;SDS011;5727;42.600;23.028;2022-07-03T07:43:38;16.27;;;11.00;;
11344;SDS011;5727;42.600;23.028;2022-07-03T07:46:05;14.53;;;12.00;;
11344;SDS011;5727;42.600;23.028;2022-07-03T07:48:35;13.77;;;11.07;;
11344;SDS011;5727;42.600;23.028;2022-07-03T07:51:01;13.60;;;10.97;;
11344;SDS011;5727;42.600;23.028;2022-07-03T07:53:28;14.63;;;11.37;;
11344;SDS011;5727;42.600;23.028;2022-07-03T07:55:55;12.13;;;10.83;;
11344;SDS011;5727;42.600;23.028;2022-07-03T07:58:22;13.10;;;11.17;;
11344;SDS011;5727;42.600;23.028;2022-07-03T08:00:49;17.60;;;11.90;;
11344;SDS011;5727;42.600;23.028;2022-07-03T08:03:35;14.33;;;12.27;;
11344;SDS011;5727;42.600;23.028;2022-07-03T08:06:19;11.63;;;10.43;;
11344;SDS011;5727;42.600;23.028;2022-07-03T08:08:46;13.93;;;11.13;;
11344;SDS011;5727;42.600;23.028;2022-07-03T08:11:12;12.90;;;10.20;;
11344;SDS011;5727;42.600;23.028;2022-07-03T08:13:39;13.33;;;9.37;;
11344;SDS011;5727;42.600;23.028;2022-07-03T08:16:06;14.07;;;10.43;;
11344;SDS011;5727;42.600;23.028;2022-07-03T08:18:34;12.87;;;8.97;;
11344;SDS011;5727;42.600;23.028;2022-07-03T08:21:01;20.87;;;9.80;;
11344;SDS011;5727;42.600;23.028;2022-07-03T08:23:28;10.67;;;9.00;;
11344;SDS011;5727;42.600;23.028;2022-07-03T08:25:54;13.33;;;9.87;;
11344;SDS011;5727;42.600;23.028;2022-07-03T08:28:21;13.17;;;9.70;;
11344;SDS011;5727;42.600;23.028;2022-07-03T08:30:48;9.33;;;8.07;;
11344;SDS011;5727;42.600;23.028;2022-07-03T08:33:15;10.53;;;8.73;;
11344;SDS011;5727;42.600;23.028;2022-07-03T08:35:43;10.43;;;7.80;;
11344;SDS011;5727;42.600;23.028;2022-07-03T08:38:10;10.80;;;7.57;;
11344;SDS011;5727;42.600;23.028;2022-07-03T08:40:37;9.43;;;8.43;;
11344;SDS011;5727;42.600;23.028;2022-07-03T08:43:04;11.20;;;8.40;;
11344;SDS011;5727;42.600;23.028;2022-07-03T08:45:32;8.90;;;7.33;;
11344;SDS011;5727;42.600;23.028;2022-07-03T08:47:59;9.27;;;8.20;;
11344;SDS011;5727;42.600;23.028;2022-07-03T08:50:28;12.03;;;8.37;;
11344;SDS011;5727;42.600;23.028;2022-07-03T08:53:00;12.77;;;8.30;;
11344;SDS011;5727;42.600;23.028;2022-07-03T08:55:28;8.63;;;7.73;;
11344;SDS011;5727;42.600;23.028;2022-07-03T08:57:55;9.20;;;7.23;;
11344;SDS011;5727;42.600;23.028;2022-07-03T09:00:24;9.67;;;7.37;;
11344;SDS011;5727;42.600;23.028;2022-07-03T09:02:52;9.97;;;7.60;;
11344;SDS011;5727;42.600;23.028;2022-07-03T09:05:21;11.63;;;7.67;;
11344;SDS011;5727;42.600;23.028;2022-07-03T09:07:47;17.70;;;8.20;;
11344;SDS011;5727;42.600;23.028;2022-07-03T09:10:16;10.50;;;7.13;;
11344;SDS011;5727;42.600;23.028;2022-07-03T09:12:44;10.80;;;8.20;;
11344;SDS011;5727;42.600;23.028;2022-07-03T09:15:12;10.10;;;7.27;;
11344;SDS011;5727;42.600;23.028;2022-07-03T09:17:39;11.40;;;6.80;;
11344;SDS011;5727;42.600;23.028;2022-07-03T09:20:06;13.63;;;7.57;;
11344;SDS011;5727;42.600;23.028;2022-07-03T09:22:34;14.13;;;7.30;;
11344;SDS011;5727;42.600;23.028;2022-07-03T09:25:05;8.25;;;6.78;;
11344;SDS011;5727;42.600;23.028;2022-07-03T09:27:35;8.75;;;6.80;;
11344;SDS011;5727;42.600;23.028;2022-07-03T09:30:03;8.68;;;6.82;;
11344;SDS011;5727;42.600;23.028;2022-07-03T09:32:32;9.53;;;7.47;;
11344;SDS011;5727;42.600;23.028;2022-07-03T09:35:13;9.82;;;7.28;;
11344;SDS011;5727;42.600;23.028;2022-07-03T09:37:47;9.70;;;6.45;;
11344;SDS011;5727;42.600;23.028;2022-07-03T09:40:15;10.73;;;7.00;;
11344;SDS011;5727;42.600;23.028;2022-07-03T09:42:57;7.70;;;6.93;;
11344;SDS011;5727;42.600;23.028;2022-07-03T09:45:25;9.70;;;7.45;;
11344;SDS011;5727;42.600;23.028;2022-07-03T09:47:52;12.25;;;7.32;;
11344;SDS011;5727;42.600;23.028;2022-07-03T09:50:19;11.05;;;7.22;;
11344;SDS011;5727;42.600;23.028;2022-07-03T09:52:46;9.60;;;7.18;;
11344;SDS011;5727;42.600;23.028;2022-07-03T09:55:15;11.60;;;7.28;;
11344;SDS011;5727;42.600;23.028;2022-07-03T09:57:54;10.23;;;7.30;;
11344;SDS011;5727;42.600;23.028;2022-07-03T10:00:27;11.73;;;7.72;;
11344;SDS011;5727;42.600;23.028;2022-07-03T10:02:55;9.98;;;6.78;;
11344;SDS011;5727;42.600;23.028;2022-07-03T10:05:24;10.15;;;6.88;;
11344;SDS011;5727;42.600;23.028;2022-07-03T10:07:53;10.80;;;7.72;;
11344;SDS011;5727;42.600;23.028;2022-07-03T10:10:23;9.77;;;8.57;;
11344;SDS011;5727;42.600;23.028;2022-07-03T10:12:51;9.65;;;7.82;;
11344;SDS011;5727;42.600;23.028;2022-07-03T10:15:21;11.27;;;8.52;;
11344;SDS011;5727;42.600;23.028;2022-07-03T10:17:50;11.68;;;9.40;;
11344;SDS011;5727;42.600;23.028;2022-07-03T10:20:20;10.68;;;8.30;;
11344;SDS011;5727;42.600;23.028;2022-07-03T10:22:50;12.52;;;9.13;;
11344;SDS011;5727;42.600;23.028;2022-07-03T10:25:17;9.20;;;8.27;;
11344;SDS011;5727;42.600;23.028;2022-07-03T10:27:44;9.82;;;8.23;;
11344;SDS011;5727;42.600;23.028;2022-07-03T10:30:13;12.07;;;8.40;;
11344;SDS011;5727;42.600;23.028;2022-07-03T10:32:42;10.82;;;8.65;;
11344;SDS011;5727;42.600;23.028;2022-07-03T10:35:11;11.45;;;8.10;;
11344;SDS011;5727;42.600;23.028;2022-07-03T10:37:46;9.95;;;8.20;;
11344;SDS011;5727;42.600;23.028;2022-07-03T10:40:23;8.32;;;7.50;;
11344;SDS011;5727;42.600;23.028;2022-07-03T10:43:17;9.35;;;8.48;;
11344;SDS011;5727;42.600;23.028;2022-07-03T10:46:09;10.50;;;8.55;;
11344;SDS011;5727;42.600;23.028;2022-07-03T10:51:22;9.57;;;8.13;;
11344;SDS011;5727;42.600;23.028;2022-07-03T10:53:50;8.68;;;7.82;;
11344;SDS011;5727;42.600;23.028;2022-07-03T10:56:32;8.73;;;7.75;;
11344;SDS011;5727;42.600;23.028;2022-07-03T11:02:31;8.95;;;8.07;;
11344;SDS011;5727;42.600;23.028;2022-07-03T11:08:03;7.68;;;6.97;;
11344;SDS011;5727;42.600;23.028;2022-07-03T11:10:35;7.43;;;6.10;;
11344;SDS011;5727;42.600;23.028;2022-07-03T11:13:31;8.30;;;6.18;;
11344;SDS011;5727;42.600;23.028;2022-07-03T11:15:58;7.93;;;7.00;;
11344;SDS011;5727;42.600;23.028;2022-07-03T11:18:26;7.07;;;6.38;;
11344;SDS011;5727;42.600;23.028;2022-07-03T11:24:07;7.10;;;6.50;;
11344;SDS011;5727;42.600;23.028;2022-07-03T11:26:45;7.70;;;7.00;;
11344;SDS011;5727;42.600;23.028;2022-07-03T11:29:27;6.25;;;5.65;;
11344;SDS011;5727;42.600;23.028;2022-07-03T11:31:54;7.57;;;5.57;;
11344;SDS011;5727;42.600;23.028;2022-07-03T11:34:21;6.88;;;5.40;;
11344;SDS011;5727;42.600;23.028;2022-07-03T11:36:48;9.60;;;6.65;;
11344;SDS011;5727;42.600;23.028;2022-07-03T11:39:18;6.15;;;5.55;;
11344;SDS011;5727;42.600;23.028;2022-07-03T11:41:47;5.65;;;4.50;;
11344;SDS011;5727;42.600;23.028;2022-07-03T11:44:14;4.78;;;3.95;;
11344;SDS011;5727;42.600;23.028;2022-07-03T11:46:46;4.75;;;3.60;;
11344;SDS011;5727;42.600;23.028;2022-07-03T11:49:15;4.35;;;3.20;;
11344;SDS011;5727;42.600;23.028;2022-07-03T11:51:52;7.00;;;3.70;;
11344;SDS011;5727;42.600;23.028;2022-07-03T11:54:22;5.25;;;3.67;;
11344;SDS011;5727;42.600;23.028;2022-07-03T11:56:49;4.97;;;3.45;;
11344;SDS011;5727;42.600;23.028;2022-07-03T11:59:16;5.95;;;3.95;;
11344;SDS011;5727;42.600;23.028;2022-07-03T12:01:43;7.15;;;4.50;;
11344;SDS011;5727;42.600;23.028;2022-07-03T12:04:12;5.32;;;4.05;;
11344;SDS011;5727;42.600;23.028;2022-07-03T12:06:40;6.22;;;3.97;;
11344;SDS011;5727;42.600;23.028;2022-07-03T12:09:11;4.22;;;3.92;;
11344;SDS011;5727;42.600;23.028;2022-07-03T12:11:41;5.88;;;4.13;;
11344;SDS011;5727;42.600;23.028;2022-07-03T12:14:08;5.32;;;3.90;;
11344;SDS011;5727;42.600;23.028;2022-07-03T12:16:35;4.15;;;3.35;;
11344;SDS011;5727;42.600;23.028;2022-07-03T12:19:03;5.75;;;3.30;;
11344;SDS011;5727;42.600;23.028;2022-07-03T12:21:37;5.90;;;3.30;;
11344;SDS011;5727;42.600;23.028;2022-07-03T12:24:09;3.40;;;3.10;;
11344;SDS011;5727;42.600;23.028;2022-07-03T12:26:37;4.18;;;3.55;;
11344;SDS011;5727;42.600;23.028;2022-07-03T12:29:05;5.18;;;3.83;;
11344;SDS011;5727;42.600;23.028;2022-07-03T12:31:34;7.30;;;3.35;;
11344;SDS011;5727;42.600;23.028;2022-07-03T12:34:01;5.95;;;3.28;;
11344;SDS011;5727;42.600;23.028;2022-07-03T12:36:28;4.93;;;3.08;;
11344;SDS011;5727;42.600;23.028;2022-07-03T12:38:56;5.32;;;2.85;;
11344;SDS011;5727;42.600;23.028;2022-07-03T12:41:25;7.13;;;2.90;;
11344;SDS011;5727;42.600;23.028;2022-07-03T12:43:52;5.47;;;3.33;;
11344;SDS011;5727;42.600;23.028;2022-07-03T12:46:21;3.40;;;2.75;;
11344;SDS011;5727;42.600;23.028;2022-07-03T12:48:49;5.15;;;2.80;;
11344;SDS011;5727;42.600;23.028;2022-07-03T12:54:04;4.53;;;3.13;;
11344;SDS011;5727;42.600;23.028;2022-07-03T12:56:31;3.83;;;3.22;;
11344;SDS011;5727;42.600;23.028;2022-07-03T12:58:57;4.35;;;3.28;;
11344;SDS011;5727;42.600;23.028;2022-07-03T13:01:43;8.77;;;3.55;;
11344;SDS011;5727;42.600;23.028;2022-07-03T13:04:11;15.80;;;4.07;;
11344;SDS011;5727;42.600;23.028;2022-07-03T13:06:43;6.50;;;3.17;;
11344;SDS011;5727;42.600;23.028;2022-07-03T13:09:11;4.18;;;3.20;;
11344;SDS011;5727;42.600;23.028;2022-07-03T13:11:39;5.20;;;2.88;;
11344;SDS011;5727;42.600;23.028;2022-07-03T13:14:08;3.70;;;3.35;;
11344;SDS011;5727;42.600;23.028;2022-07-03T13:16:40;4.95;;;2.80;;
11344;SDS011;5727;42.600;23.028;2022-07-03T13:19:10;3.80;;;3.30;;
11344;SDS011;5727;42.600;23.028;2022-07-03T13:21:38;5.28;;;3.63;;
11344;SDS011;5727;42.600;23.028;2022-07-03T13:24:05;5.38;;;3.20;;
11344;SDS011;5727;42.600;23.028;2022-07-03T13:26:33;4.35;;;3.08;;
11344;SDS011;5727;42.600;23.028;2022-07-03T13:29:00;5.97;;;3.22;;
11344;SDS011;5727;42.600;23.028;2022-07-03T13:31:27;5.38;;;3.35;;
11344;SDS011;5727;42.600;23.028;2022-07-03T13:33:55;5.68;;;3.00;;
11344;SDS011;5727;42.600;23.028;2022-07-03T13:36:23;3.22;;;2.92;;
11344;SDS011;5727;42.600;23.028;2022-07-03T13:38:50;4.25;;;3.40;;
11344;SDS011;5727;42.600;23.028;2022-07-03T13:41:17;4.22;;;2.90;;
11344;SDS011;5727;42.600;23.028;2022-07-03T13:43:46;4.15;;;3.28;;
11344;SDS011;5727;42.600;23.028;2022-07-03T13:46:14;4.55;;;3.25;;
11344;SDS011;5727;42.600;23.028;2022-07-03T13:48:41;3.30;;;3.00;;
11344;SDS011;5727;42.600;23.028;2022-07-03T13:51:09;3.95;;;3.10;;
11344;SDS011;5727;42.600;23.028;2022-07-03T13:53:36;4.53;;;3.45;;
11344;SDS011;5727;42.600;23.028;2022-07-03T13:56:03;4.45;;;3.50;;
11344;SDS011;5727;42.600;23.028;2022-07-03T13:58:31;7.07;;;3.25;;
11344;SDS011;5727;42.600;23.028;2022-07-03T14:01:01;4.30;;;3.38;;
11344;SDS011;5727;42.600;23.028;2022-07-03T14:03:27;5.22;;;3.83;;
11344;SDS011;5727;42.600;23.028;2022-07-03T14:05:54;5.45;;;3.90;;
11344;SDS011;5727;42.600;23.028;2022-07-03T14:08:23;4.38;;;3.42;;
11344;SDS011;5727;42.600;23.028;2022-07-03T14:10:49;4.55;;;3.45;;
11344;SDS011;5727;42.600;23.028;2022-07-03T14:13:16;6.78;;;3.55;;
11344;SDS011;5727;42.600;23.028;2022-07-03T14:15:43;5.65;;;3.88;;
11344;SDS011;5727;42.600;23.028;2022-07-03T14:18:10;4.45;;;3.60;;
11344;SDS011;5727;42.600;23.028;2022-07-03T14:20:37;3.25;;;2.90;;
11344;SDS011;5727;42.600;23.028;2022-07-03T14:23:03;3.78;;;2.75;;
11344;SDS011;5727;42.600;23.028;2022-07-03T14:25:32;4.72;;;2.90;;
11344;SDS011;5727;42.600;23.028;2022-07-03T14:27:58;4.78;;;3.33;;
11344;SDS011;5727;42.600;23.028;2022-07-03T14:30:42;3.72;;;3.30;;
11344;SDS011;5727;42.600;23.028;2022-07-03T14:33:26;6.03;;;2.92;;
11344;SDS011;5727;42.600;23.028;2022-07-03T14:35:53;4.85;;;3.38;;
11344;SDS011;5727;42.600;23.028;2022-07-03T14:38:20;4.88;;;3.22;;
11344;SDS011;5727;42.600;23.028;2022-07-03T14:40:48;3.80;;;3.25;;
11344;SDS011;5727;42.600;23.028;2022-07-03T14:43:16;7.10;;;3.50;;
11344;SDS011;5727;42.600;23.028;2022-07-03T14:45:43;4.80;;;3.30;;
11344;SDS011;5727;42.600;23.028;2022-07-03T14:48:10;5.75;;;3.35;;
11344;SDS011;5727;42.600;23.028;2022-07-03T14:50:37;4.45;;;3.17;;
11344;SDS011;5727;42.600;23.028;2022-07-03T14:53:04;5.95;;;3.90;;
11344;SDS011;5727;42.600;23.028;2022-07-03T14:55:36;4.72;;;3.22;;
11344;SDS011;5727;42.600;23.028;2022-07-03T14:58:08;5.88;;;3.50;;
11344;SDS011;5727;42.600;23.028;2022-07-03T15:00:42;4.93;;;3.70;;
11344;SDS011;5727;42.600;23.028;2022-07-03T15:03:15;5.15;;;3.40;;
11344;SDS011;5727;42.600;23.028;2022-07-03T15:05:43;5.07;;;3.53;;
11344;SDS011;5727;42.600;23.028;2022-07-03T15:08:15;5.60;;;3.58;;
11344;SDS011;5727;42.600;23.028;2022-07-03T15:10:50;5.85;;;3.80;;